createdAt,value
2022-10-21T00:00:09.776Z,15.30
2022-10-21T00:02:36.644Z,14.30
2022-10-21T00:05:03.913Z,14.40
2022-10-21T00:07:30.672Z,14.30
2022-10-21T00:09:57.316Z,14.40
2022-10-21T00:12:23.948Z,14.20
2022-10-21T00:14:53.647Z,14.70
2022-10-21T00:17:23.072Z,14.40
2022-10-21T00:19:49.656Z,14.50
2022-10-21T00:22:16.363Z,14.40
2022-10-21T00:24:43.079Z,14.60
2022-10-21T00:27:09.703Z,14.30
2022-10-21T00:29:36.280Z,14.60
2022-10-21T00:32:03.000Z,14.50
2022-10-21T00:34:31.005Z,14.40
2022-10-21T00:36:58.081Z,14.60
2022-10-21T00:39:24.664Z,14.60
2022-10-21T00:41:51.257Z,14.60
2022-10-21T00:44:18.007Z,14.60
2022-10-21T00:46:51.021Z,14.60
2022-10-21T00:49:23.441Z,14.40
2022-10-21T00:51:51.413Z,14.60
2022-10-21T00:54:20.022Z,14.60
2022-10-21T00:56:47.607Z,14.40
2022-10-21T00:59:14.607Z,14.90
2022-10-21T01:01:41.500Z,14.60
2022-10-21T01:04:08.233Z,14.60
2022-10-21T01:06:34.975Z,14.60
2022-10-21T01:09:01.938Z,14.50
2022-10-21T01:11:30.281Z,14.70
2022-10-21T01:13:56.836Z,14.80
2022-10-21T01:16:29.344Z,14.90
2022-10-21T01:19:17.311Z,14.80
2022-10-21T01:21:48.221Z,14.70
2022-10-21T01:24:33.125Z,14.80
2022-10-21T01:27:04.361Z,14.70
2022-10-21T01:29:49.476Z,15.00
2022-10-21T01:32:24.240Z,14.70
2022-10-21T01:34:50.796Z,14.80
2022-10-21T01:37:21.444Z,14.80
2022-10-21T01:39:55.735Z,14.90
2022-10-21T01:42:31.116Z,14.70
2022-10-21T01:45:02.130Z,14.60
2022-10-21T01:47:37.547Z,14.70
2022-10-21T01:50:07.094Z,14.70
2022-10-21T01:52:33.748Z,14.60
2022-10-21T01:55:08.738Z,14.50
2022-10-21T01:57:37.749Z,14.60
2022-10-21T02:00:05.031Z,14.70
2022-10-21T02:02:32.779Z,14.50
2022-10-21T02:05:01.110Z,14.50
2022-10-21T02:07:28.356Z,14.90
2022-10-21T02:09:54.923Z,14.50
2022-10-21T02:12:22.423Z,14.60
2022-10-21T02:14:50.939Z,14.40
2022-10-21T02:17:19.509Z,14.50
2022-10-21T02:19:46.693Z,14.50
2022-10-21T02:22:14.988Z,14.40
2022-10-21T02:24:51.428Z,14.40
2022-10-21T02:27:18.455Z,14.40
2022-10-21T02:29:45.681Z,14.50
2022-10-21T02:32:18.203Z,14.30
2022-10-21T02:34:51.376Z,14.30
2022-10-21T02:37:24.066Z,14.20
2022-10-21T02:39:52.688Z,14.20
2022-10-21T02:42:40.807Z,14.10
2022-10-21T02:45:09.085Z,14.10
2022-10-21T02:47:36.820Z,14.10
2022-10-21T02:50:03.793Z,14.10
2022-10-21T02:52:30.388Z,14.10
2022-10-21T02:54:56.961Z,13.90
2022-10-21T02:57:23.586Z,14.00
2022-10-21T02:59:50.290Z,14.00
2022-10-21T03:02:16.871Z,14.10
2022-10-21T03:04:43.446Z,14.00
2022-10-21T03:07:10.181Z,14.10
2022-10-21T03:09:36.772Z,14.00
2022-10-21T03:12:03.501Z,14.10
2022-10-21T03:14:30.066Z,14.10
2022-10-21T03:16:56.707Z,14.20
2022-10-21T03:19:23.279Z,14.10
2022-10-21T03:21:49.877Z,14.40
2022-10-21T03:24:28.114Z,14.20
2022-10-21T03:26:55.761Z,14.20
2022-10-21T03:29:22.371Z,14.40
2022-10-21T03:31:49.010Z,14.30
2022-10-21T03:34:15.679Z,14.30
2022-10-21T03:36:42.338Z,14.30
2022-10-21T03:39:10.263Z,14.30
2022-10-21T03:41:36.852Z,14.30
2022-10-21T03:44:03.495Z,14.30
2022-10-21T03:46:30.207Z,14.30
2022-10-21T03:49:01.036Z,14.30
2022-10-21T03:51:31.143Z,14.30
2022-10-21T03:53:57.723Z,14.50
2022-10-21T03:56:24.301Z,14.50
2022-10-21T03:58:54.014Z,14.30
2022-10-21T04:01:24.352Z,14.30
2022-10-21T04:03:50.981Z,14.30
2022-10-21T04:06:17.567Z,14.20
2022-10-21T04:08:44.243Z,14.20
2022-10-21T04:11:11.045Z,14.20
2022-10-21T04:13:37.750Z,14.20
2022-10-21T04:16:05.712Z,14.20
2022-10-21T04:18:32.523Z,14.10
2022-10-21T04:20:59.085Z,14.10
2022-10-21T04:23:25.783Z,14.20
2022-10-21T04:25:52.356Z,14.10
2022-10-21T04:28:18.953Z,14.20
2022-10-21T04:30:45.528Z,14.20
2022-10-21T04:33:12.112Z,14.20
2022-10-21T04:35:39.360Z,14.00
2022-10-21T04:38:06.034Z,14.00
2022-10-21T04:40:32.795Z,14.20
2022-10-21T04:42:59.369Z,14.40
2022-10-21T04:45:25.942Z,14.10
2022-10-21T04:47:52.508Z,14.10
2022-10-21T04:50:19.149Z,14.20
2022-10-21T04:52:45.883Z,14.60
2022-10-21T04:55:12.468Z,14.10
2022-10-21T04:57:40.212Z,13.90
2022-10-21T05:00:07.506Z,13.80
2022-10-21T05:02:34.091Z,13.80
2022-10-21T05:05:00.747Z,13.70
2022-10-21T05:07:27.642Z,13.70
2022-10-21T05:09:54.241Z,13.60
2022-10-21T05:12:20.839Z,13.80
2022-10-21T05:14:47.409Z,13.40
2022-10-21T05:17:14.027Z,13.60
2022-10-21T05:19:40.799Z,13.50
2022-10-21T05:22:07.380Z,13.50
2022-10-21T05:24:34.052Z,13.30
2022-10-21T05:27:00.642Z,13.40
2022-10-21T05:29:27.204Z,13.30
2022-10-21T05:31:53.849Z,13.40
2022-10-21T05:34:20.580Z,13.40
2022-10-21T05:36:47.787Z,13.40
2022-10-21T05:39:14.535Z,13.40
2022-10-21T05:41:44.123Z,13.40
2022-10-21T05:44:13.583Z,13.30
2022-10-21T05:46:40.311Z,13.50
2022-10-21T05:49:07.567Z,13.50
2022-10-21T05:51:34.317Z,13.50
2022-10-21T05:54:02.909Z,13.80
2022-10-21T05:56:30.383Z,13.60
2022-10-21T05:58:57.090Z,14.40
2022-10-21T06:01:23.879Z,13.70
2022-10-21T06:03:50.637Z,13.70
2022-10-21T06:06:17.314Z,13.70
2022-10-21T06:08:44.028Z,13.80
2022-10-21T06:11:12.149Z,13.80
2022-10-21T06:13:39.222Z,14.20
2022-10-21T06:16:07.351Z,14.10
2022-10-21T06:18:34.081Z,14.00
2022-10-21T06:21:00.789Z,14.00
2022-10-21T06:23:27.379Z,14.10
2022-10-21T06:25:55.071Z,14.20
2022-10-21T06:28:21.720Z,14.30
2022-10-21T06:30:48.385Z,14.30
2022-10-21T06:33:15.038Z,14.40
2022-10-21T06:35:41.636Z,14.40
2022-10-21T06:38:08.351Z,14.50
2022-10-21T06:40:34.974Z,14.60
2022-10-21T06:43:01.656Z,14.70
2022-10-21T06:45:28.245Z,14.70
2022-10-21T06:47:54.850Z,14.80
2022-10-21T06:50:21.446Z,14.90
2022-10-21T06:52:51.470Z,14.90
2022-10-21T06:55:18.313Z,14.80
2022-10-21T06:57:44.970Z,14.80
2022-10-21T07:00:12.211Z,14.90
2022-10-21T07:02:39.286Z,14.90
2022-10-21T07:05:06.439Z,14.90
2022-10-21T07:07:33.118Z,15.00
2022-10-21T07:09:59.819Z,15.00
2022-10-21T07:12:27.495Z,15.10
2022-10-21T07:14:54.421Z,15.20
2022-10-21T07:17:21.207Z,15.20
2022-10-21T07:19:47.866Z,15.20
2022-10-21T07:22:14.858Z,15.30
2022-10-21T07:24:41.639Z,15.30
2022-10-21T07:27:08.215Z,15.40
2022-10-21T07:29:34.832Z,15.40
2022-10-21T07:32:01.499Z,15.50
2022-10-21T07:34:28.069Z,15.50
2022-10-21T07:36:54.893Z,15.50
2022-10-21T07:39:23.323Z,15.60
2022-10-21T07:41:54.368Z,15.60
2022-10-21T07:44:22.011Z,15.70
2022-10-21T07:46:49.325Z,15.80
2022-10-21T07:49:16.536Z,15.90
2022-10-21T07:51:45.251Z,15.90
2022-10-21T07:54:12.951Z,16.00
2022-10-21T07:56:41.452Z,16.20
2022-10-21T07:59:12.616Z,16.30
2022-10-21T08:01:44.103Z,16.30
2022-10-21T08:04:11.842Z,16.40
2022-10-21T08:06:38.702Z,16.40
2022-10-21T08:09:05.712Z,16.50
2022-10-21T08:11:33.491Z,16.60
2022-10-21T08:14:00.331Z,16.80
2022-10-21T08:16:27.105Z,17.00
2022-10-21T08:18:53.934Z,17.00
2022-10-21T08:21:21.243Z,17.10
2022-10-21T08:23:47.951Z,17.30
2022-10-21T08:26:15.638Z,17.30
2022-10-21T08:28:42.730Z,17.50
2022-10-21T08:31:11.171Z,17.60
2022-10-21T08:33:38.182Z,17.70
2022-10-21T08:36:05.568Z,17.70
2022-10-21T08:38:32.216Z,17.80
2022-10-21T08:40:59.583Z,17.80
2022-10-21T08:43:31.423Z,17.70
2022-10-21T08:46:04.275Z,17.60
2022-10-21T08:48:37.439Z,17.60
2022-10-21T08:51:06.199Z,17.60
2022-10-21T08:53:37.874Z,17.60
2022-10-21T08:56:12.624Z,17.60
2022-10-21T08:58:41.221Z,17.70
2022-10-21T09:01:10.542Z,17.70
2022-10-21T09:03:44.952Z,17.70
2022-10-21T09:06:19.935Z,17.70
2022-10-21T09:08:57.434Z,17.70
2022-10-21T09:11:56.583Z,17.60
2022-10-21T09:14:23.154Z,17.60
2022-10-21T09:17:07.861Z,17.60
2022-10-21T09:19:45.461Z,17.60
2022-10-21T09:22:34.405Z,17.60
2022-10-21T09:25:20.435Z,17.50
2022-10-21T09:28:02.727Z,17.40
2022-10-21T09:30:29.615Z,17.50
2022-10-21T09:32:58.095Z,17.70
2022-10-21T09:35:33.902Z,17.90
2022-10-21T09:38:12.965Z,17.90
2022-10-21T09:40:39.541Z,17.90
2022-10-21T09:43:10.949Z,18.00
2022-10-21T09:45:43.749Z,18.00
2022-10-21T09:48:22.478Z,18.10
2022-10-21T09:51:10.494Z,18.00
2022-10-21T09:53:57.403Z,17.90
2022-10-21T09:56:24.046Z,17.80
2022-10-21T09:59:11.399Z,17.80
2022-10-21T10:01:39.179Z,17.80
2022-10-21T10:04:14.703Z,17.60
2022-10-21T10:06:42.822Z,17.50
2022-10-21T10:09:18.791Z,17.40
2022-10-21T10:11:50.062Z,17.50
2022-10-21T10:14:22.108Z,17.50
2022-10-21T10:16:48.683Z,17.60
2022-10-21T10:19:15.224Z,17.60
2022-10-21T10:21:41.885Z,17.40
2022-10-21T10:24:15.558Z,17.40
2022-10-21T10:26:42.759Z,17.30
2022-10-21T10:29:10.565Z,17.20
2022-10-21T10:31:37.380Z,17.00
2022-10-21T10:34:06.661Z,16.90
2022-10-21T10:36:37.531Z,16.80
2022-10-21T10:39:07.598Z,16.70
2022-10-21T10:41:36.416Z,16.60
2022-10-21T10:44:08.677Z,16.60
2022-10-21T10:46:36.413Z,16.40
2022-10-21T10:49:17.072Z,16.50
2022-10-21T10:51:46.049Z,16.40
2022-10-21T10:54:16.421Z,16.50
2022-10-21T10:56:48.773Z,16.40
2022-10-21T10:59:21.484Z,16.40
2022-10-21T11:02:01.297Z,16.50
2022-10-21T11:04:28.104Z,16.60
2022-10-21T11:06:58.690Z,16.50
2022-10-21T11:09:27.539Z,16.50
2022-10-21T11:11:56.259Z,16.90
2022-10-21T11:14:23.018Z,16.40
2022-10-21T11:17:01.801Z,16.50
2022-10-21T11:19:31.467Z,16.40
2022-10-21T11:22:12.846Z,16.50
2022-10-21T11:24:51.524Z,16.40
2022-10-21T11:27:33.367Z,16.20
2022-10-21T11:30:00.139Z,16.30
2022-10-21T11:32:26.784Z,16.40
2022-10-21T11:35:00.382Z,16.50
2022-10-21T11:37:27.008Z,16.80
2022-10-21T11:40:09.000Z,16.40
2022-10-21T11:42:40.736Z,16.40
2022-10-21T11:45:16.137Z,16.50
2022-10-21T11:47:42.835Z,16.50
2022-10-21T11:53:16.620Z,16.60
2022-10-21T11:55:49.517Z,16.60
2022-10-21T11:58:32.575Z,16.70
2022-10-21T12:01:09.573Z,16.80
2022-10-21T12:03:45.202Z,16.80
2022-10-21T12:06:17.961Z,16.90
2022-10-21T12:08:55.249Z,17.10
2022-10-21T12:11:30.954Z,17.40
2022-10-21T12:14:06.465Z,17.60
2022-10-21T12:16:34.076Z,17.70
2022-10-21T12:19:05.038Z,17.90
2022-10-21T12:21:35.245Z,17.90
2022-10-21T12:24:06.187Z,17.90
2022-10-21T12:29:17.817Z,18.20
2022-10-21T12:31:51.852Z,18.40
2022-10-21T12:34:18.437Z,18.60
2022-10-21T12:36:46.796Z,18.70
2022-10-21T12:39:18.159Z,18.90
2022-10-21T12:41:46.329Z,19.00
2022-10-21T12:44:23.064Z,19.20
2022-10-21T12:46:57.123Z,19.40
2022-10-21T12:49:32.509Z,19.50
2022-10-21T12:52:04.892Z,19.60
2022-10-21T12:54:36.413Z,19.40
2022-10-21T12:57:10.792Z,19.20
2022-10-21T12:59:39.077Z,19.20
2022-10-21T13:02:05.652Z,19.10
2022-10-21T13:04:32.231Z,19.20
2022-10-21T13:06:58.891Z,19.20
2022-10-21T13:09:34.777Z,18.90
2022-10-21T13:12:10.516Z,19.00
2022-10-21T13:14:48.145Z,19.00
2022-10-21T13:17:15.708Z,19.00
2022-10-21T13:19:42.481Z,19.00
2022-10-21T13:22:17.156Z,19.10
2022-10-21T13:24:44.383Z,18.90
2022-10-21T13:27:25.477Z,18.60
2022-10-21T13:29:52.744Z,18.70
2022-10-21T13:32:22.240Z,18.50
2022-10-21T13:34:48.940Z,18.50
2022-10-21T13:37:16.883Z,18.50
2022-10-21T13:39:43.801Z,18.60
2022-10-21T13:42:16.610Z,18.40
2022-10-21T13:44:50.794Z,18.40
2022-10-21T13:47:18.706Z,18.30
2022-10-21T13:49:52.660Z,18.20
2022-10-21T13:52:19.278Z,18.00
2022-10-21T13:54:46.268Z,17.80
2022-10-21T13:57:17.748Z,17.70
2022-10-21T13:59:44.479Z,17.50
2022-10-21T14:02:24.390Z,17.30
2022-10-21T14:04:51.129Z,17.30
2022-10-21T14:07:19.209Z,17.00
2022-10-21T14:09:46.906Z,17.10
2022-10-21T14:12:32.298Z,16.60
2022-10-21T14:15:11.473Z,16.60
2022-10-21T14:17:40.632Z,16.60
2022-10-21T14:20:21.373Z,16.50
2022-10-21T14:22:48.728Z,16.40
2022-10-21T14:25:16.217Z,16.50
2022-10-21T14:27:46.816Z,16.50
2022-10-21T14:30:18.467Z,16.60
2022-10-21T14:32:46.295Z,16.70
2022-10-21T14:35:12.928Z,16.70
2022-10-21T14:37:46.822Z,16.60
2022-10-21T14:40:26.453Z,16.70
2022-10-21T14:42:54.314Z,16.70
2022-10-21T14:45:28.337Z,16.60
2022-10-21T14:48:27.403Z,16.50
2022-10-21T14:50:59.767Z,16.90
2022-10-21T14:53:27.579Z,16.80
2022-10-21T14:55:55.703Z,16.80
2022-10-21T14:58:24.558Z,16.70
2022-10-21T15:01:14.245Z,16.70
2022-10-21T15:03:40.857Z,16.60
2022-10-21T15:06:27.770Z,16.70
2022-10-21T15:08:57.615Z,16.70
2022-10-21T15:11:28.856Z,16.70
2022-10-21T15:13:56.332Z,16.60
2022-10-21T15:16:25.821Z,17.50
2022-10-21T15:18:53.990Z,16.70
2022-10-21T15:21:25.480Z,16.70
2022-10-21T15:23:54.701Z,16.70
2022-10-21T15:26:38.149Z,16.50
2022-10-21T15:29:12.472Z,16.50
2022-10-21T15:31:39.877Z,16.50
2022-10-21T15:34:10.865Z,16.50
2022-10-21T15:36:37.708Z,16.40
2022-10-21T15:39:06.871Z,16.30
2022-10-21T15:41:35.950Z,16.30
2022-10-21T15:44:04.230Z,16.30
2022-10-21T15:46:33.148Z,16.20
2022-10-21T15:49:05.756Z,16.70
2022-10-21T15:51:32.349Z,16.20
2022-10-21T15:53:58.916Z,16.30
2022-10-21T15:56:25.487Z,16.50
2022-10-21T15:58:52.058Z,16.30
2022-10-21T16:01:18.682Z,16.20
2022-10-21T16:03:45.843Z,16.10
2022-10-21T16:06:16.661Z,16.20
2022-10-21T16:08:43.313Z,16.10
2022-10-21T16:11:13.687Z,16.30
2022-10-21T16:13:40.477Z,15.90
2022-10-21T16:16:16.228Z,16.00
2022-10-21T16:18:42.827Z,15.90
2022-10-21T16:21:12.191Z,16.50
2022-10-21T16:23:38.975Z,16.20
2022-10-21T16:26:10.489Z,16.20
2022-10-21T16:28:37.058Z,16.00
2022-10-21T16:31:04.664Z,16.00
2022-10-21T16:33:31.384Z,15.90
2022-10-21T16:35:57.961Z,15.80
2022-10-21T16:38:24.686Z,15.90
2022-10-21T16:40:51.268Z,15.80
2022-10-21T16:43:17.887Z,15.80
2022-10-21T16:45:44.535Z,15.80
2022-10-21T16:48:11.235Z,15.90
2022-10-21T16:50:40.674Z,15.80
2022-10-21T16:53:09.497Z,15.70
2022-10-21T16:55:36.117Z,15.60
2022-10-21T16:58:02.718Z,15.70
2022-10-21T17:00:29.301Z,15.60
2022-10-21T17:02:57.230Z,15.60
2022-10-21T17:05:23.813Z,15.60
2022-10-21T17:07:50.523Z,15.50
2022-10-21T17:10:17.188Z,15.50
2022-10-21T17:12:43.819Z,15.50
2022-10-21T17:15:12.135Z,15.50
2022-10-21T17:17:39.063Z,15.60
2022-10-21T17:20:06.109Z,15.60
2022-10-21T17:22:32.766Z,15.50
2022-10-21T17:24:59.403Z,15.40
2022-10-21T17:27:25.986Z,15.40
2022-10-21T17:29:52.569Z,15.50
2022-10-21T17:32:19.255Z,15.60
2022-10-21T17:34:45.819Z,15.40
2022-10-21T17:37:12.472Z,15.50
2022-10-21T17:39:39.117Z,15.50
2022-10-21T17:42:05.704Z,16.60
2022-10-21T17:44:32.549Z,15.50
2022-10-21T17:46:59.185Z,15.50
2022-10-21T17:49:26.882Z,15.60
2022-10-21T17:51:53.548Z,15.50
2022-10-21T17:54:22.960Z,15.50
2022-10-21T17:56:53.283Z,15.50
2022-10-21T17:59:19.863Z,15.70
2022-10-21T18:01:46.653Z,15.50
2022-10-21T18:04:13.663Z,15.40
2022-10-21T18:06:40.329Z,15.30
2022-10-21T18:09:08.569Z,15.30
2022-10-21T18:11:36.172Z,15.30
2022-10-21T18:14:03.056Z,15.30
2022-10-21T18:16:29.726Z,15.40
2022-10-21T18:19:00.128Z,15.40
2022-10-21T18:21:29.448Z,15.30
2022-10-21T18:23:56.124Z,15.30
2022-10-21T18:26:27.499Z,15.40
2022-10-21T18:28:57.099Z,15.40
2022-10-21T18:31:24.929Z,15.50
2022-10-21T18:33:53.235Z,15.40
2022-10-21T18:36:19.820Z,15.60
2022-10-21T18:38:46.439Z,15.30
2022-10-21T18:41:20.566Z,15.20
2022-10-21T18:43:52.357Z,15.50
2022-10-21T18:46:19.896Z,15.40
2022-10-21T18:48:46.552Z,15.30
2022-10-21T18:51:15.486Z,15.30
2022-10-21T18:53:42.777Z,15.40
2022-10-21T18:56:10.873Z,15.20
2022-10-21T18:58:37.682Z,15.30
2022-10-21T19:01:05.204Z,15.40
2022-10-21T19:03:32.206Z,15.30
2022-10-21T19:06:14.106Z,15.30
2022-10-21T19:08:40.746Z,15.30
2022-10-21T19:11:07.512Z,15.40
2022-10-21T19:13:34.128Z,15.40
2022-10-21T19:16:00.696Z,15.40
2022-10-21T19:18:27.598Z,15.70
2022-10-21T19:20:54.336Z,15.40
2022-10-21T19:23:20.925Z,16.00
2022-10-21T19:25:47.539Z,15.60
2022-10-21T19:28:14.108Z,15.50
2022-10-21T19:30:40.750Z,15.50
2022-10-21T19:33:07.328Z,15.40
2022-10-21T19:35:33.904Z,15.40
2022-10-21T19:38:03.202Z,15.40
2022-10-21T19:40:34.445Z,15.60
2022-10-21T19:43:01.015Z,15.40
2022-10-21T19:45:27.686Z,15.60
2022-10-21T19:47:54.266Z,15.50
2022-10-21T19:50:20.837Z,15.60
2022-10-21T19:52:47.450Z,15.50
2022-10-21T19:55:14.151Z,15.60
2022-10-21T19:57:40.818Z,15.60
2022-10-21T20:00:07.864Z,15.50
2022-10-21T20:02:34.479Z,15.50
2022-10-21T20:05:01.325Z,15.60
2022-10-21T20:07:27.975Z,15.60
2022-10-21T20:09:54.539Z,15.50
2022-10-21T20:12:21.118Z,15.80
2022-10-21T20:14:47.699Z,15.70
2022-10-21T20:17:17.389Z,15.60
2022-10-21T20:19:48.349Z,15.50
2022-10-21T20:22:15.143Z,15.50
2022-10-21T20:24:45.550Z,15.60
2022-10-21T20:27:13.088Z,15.50
2022-10-21T20:29:39.651Z,15.40
2022-10-21T20:32:06.249Z,15.40
2022-10-21T20:34:34.158Z,15.20
2022-10-21T20:37:03.329Z,15.30
2022-10-21T20:39:29.902Z,15.30
2022-10-21T20:41:56.650Z,15.20
2022-10-21T20:44:23.235Z,15.30
2022-10-21T20:46:49.829Z,15.30
2022-10-21T20:49:16.528Z,15.40
2022-10-21T20:51:43.212Z,15.70
2022-10-21T20:54:13.137Z,15.40
2022-10-21T20:56:40.353Z,15.50
2022-10-21T20:59:08.072Z,15.50
2022-10-21T21:01:36.206Z,15.60
2022-10-21T21:04:04.923Z,16.00
2022-10-21T21:06:35.121Z,15.60
2022-10-21T21:11:48.532Z,15.60
2022-10-21T21:14:15.261Z,15.60
2022-10-21T21:16:41.846Z,15.60
2022-10-21T21:19:10.700Z,15.80
2022-10-21T21:21:37.382Z,15.60
2022-10-21T21:24:04.326Z,15.70
2022-10-21T21:26:32.300Z,15.60
2022-10-21T21:28:58.886Z,15.60
2022-10-21T21:31:26.528Z,15.80
2022-10-21T21:33:53.255Z,15.60
2022-10-21T21:36:20.449Z,15.60
2022-10-21T21:38:47.532Z,15.60
2022-10-21T21:41:16.651Z,15.90
2022-10-21T21:43:45.118Z,15.50
2022-10-21T21:46:11.900Z,15.50
2022-10-21T21:48:38.498Z,15.50
2022-10-21T21:51:11.760Z,15.50
2022-10-21T21:53:38.652Z,15.30
2022-10-21T21:56:06.002Z,15.30
2022-10-21T21:58:32.591Z,15.30
2022-10-21T22:01:28.642Z,15.30
2022-10-21T22:03:55.767Z,15.30
2022-10-21T22:06:24.212Z,15.20
2022-10-21T22:08:51.201Z,15.20
2022-10-21T22:11:19.096Z,15.20
2022-10-21T22:13:45.905Z,15.20
2022-10-21T22:16:13.783Z,15.10
2022-10-21T22:18:40.412Z,15.00
2022-10-21T22:21:08.761Z,15.10
2022-10-21T22:23:35.956Z,15.10
2022-10-21T22:26:02.623Z,15.20
2022-10-21T22:28:29.253Z,15.30
2022-10-21T22:30:57.985Z,15.20
2022-10-21T22:33:24.983Z,15.20
2022-10-21T22:35:51.595Z,15.20
2022-10-21T22:38:18.364Z,15.20
2022-10-21T22:40:44.943Z,15.20
2022-10-21T22:43:11.578Z,15.20
2022-10-21T22:45:38.267Z,15.20
2022-10-21T22:48:04.969Z,15.20
2022-10-21T22:50:31.540Z,15.20
2022-10-21T22:52:58.185Z,15.20
2022-10-21T22:55:24.790Z,15.20
2022-10-21T22:57:51.523Z,15.10
2022-10-21T23:00:18.140Z,15.20
2022-10-21T23:02:44.768Z,15.10
2022-10-21T23:05:11.370Z,15.30
2022-10-21T23:07:38.017Z,15.20
2022-10-21T23:10:04.935Z,15.20
2022-10-21T23:12:31.530Z,15.20
2022-10-21T23:14:58.117Z,15.20
2022-10-21T23:17:25.682Z,15.20
2022-10-21T23:19:52.662Z,15.20
2022-10-21T23:22:19.761Z,16.20
2022-10-21T23:24:46.390Z,15.10
2022-10-21T23:27:13.004Z,15.10
2022-10-21T23:29:39.584Z,15.10
2022-10-21T23:32:06.205Z,15.00
2022-10-21T23:34:32.912Z,15.00
2022-10-21T23:36:59.571Z,15.10
2022-10-21T23:39:26.383Z,15.10
2022-10-21T23:41:53.368Z,15.10
2022-10-21T23:44:20.101Z,15.10
2022-10-21T23:46:46.704Z,15.10
2022-10-21T23:49:13.851Z,15.40
2022-10-21T23:51:40.439Z,15.20
2022-10-21T23:54:07.026Z,15.50
2022-10-21T23:56:33.682Z,15.20
2022-10-21T23:59:01.123Z,15.30
